Time;durP1;ratioP1;P1;durP2;ratioP2;P2;SDS_P1;SDS_P2;PMS_P1;PMS_P2;Temp;Humidity;BMP_temperature;BMP_pressure;BME280_temperature;BME280_humidity;BME280_pressure;Samples;Min_cycle;Max_cycle;Signal;HPM_P1;HPM_P2
2023/12/31 00:00:12;;;;;;;3.70;2.50;;;;;;;9.11;100.00;100300.13;6086184;19;20043;-77
2023/12/31 00:02:20;;;;;;;2.40;2.08;;;;;;;9.13;100.00;100295.66;6087430;19;20014;-75
2023/12/31 00:04:27;;;;;;;3.88;2.50;;;;;;;9.15;100.00;100279.88;6088466;19;20538;-76
2023/12/31 00:06:33;;;;;;;7.50;3.08;;;;;;;9.16;100.00;100273.69;6090013;19;20010;-77
2023/12/31 00:08:38;;;;;;;4.85;2.60;;;;;;;9.13;100.00;100269.44;6088064;19;20014;-75
2023/12/31 00:10:47;;;;;;;5.18;2.83;;;;;;;9.13;100.00;100264.19;6084925;19;20049;-76
2023/12/31 00:12:53;;;;;;;7.55;3.35;;;;;;;9.11;100.00;100260.81;6087737;19;20018;-75
2023/12/31 00:15:01;;;;;;;3.97;2.50;;;;;;;9.10;100.00;100266.97;6087232;19;20007;-75
2023/12/31 00:17:07;;;;;;;5.68;3.17;;;;;;;9.13;100.00;100256.34;6083173;19;20402;-75
2023/12/31 00:19:09;;;;;;;5.07;2.60;;;;;;;9.15;100.00;100256.28;6086736;19;20083;-75
2023/12/31 00:21:15;;;;;;;5.80;2.92;;;;;;;9.11;100.00;100250.34;6082196;19;20031;-77
2023/12/31 00:23:20;;;;;;;7.10;2.97;;;;;;;9.10;100.00;100247.75;6084209;19;20026;-75
2023/12/31 00:25:26;;;;;;;3.72;2.72;;;;;;;9.12;100.00;100248.56;6086189;19;20566;-75
2023/12/31 00:27:41;;;;;;;4.55;2.38;;;;;;;9.13;100.00;100250.25;6088421;19;20018;-75
2023/12/31 00:29:50;;;;;;;4.60;2.55;;;;;;;9.10;100.00;100232.03;6085944;19;20027;-74
2023/12/31 00:31:55;;;;;;;3.95;2.55;;;;;;;9.10;100.00;100238.13;6085954;19;20014;-74
2023/12/31 00:34:03;;;;;;;4.95;2.50;;;;;;;9.12;100.00;100228.44;6086214;19;20042;-75
2023/12/31 00:36:12;;;;;;;5.03;2.53;;;;;;;9.08;100.00;100229.47;6085036;19;20364;-74
2023/12/31 00:38:17;;;;;;;6.38;2.85;;;;;;;9.12;100.00;100219.72;6084770;19;20223;-74
2023/12/31 00:40:30;;;;;;;6.97;2.75;;;;;;;9.08;100.00;100216.38;6084062;19;20471;-74
2023/12/31 00:42:38;;;;;;;5.45;2.30;;;;;;;9.10;100.00;100217.16;6086200;19;20351;-74
2023/12/31 00:44:40;;;;;;;6.30;2.63;;;;;;;9.06;100.00;100205.13;6085557;19;20352;-74
2023/12/31 00:46:46;;;;;;;4.43;2.70;;;;;;;9.08;100.00;100213.75;6085794;19;20318;-74
2023/12/31 00:48:51;;;;;;;5.32;2.28;;;;;;;9.06;100.00;100209.50;6086651;19;20002;-75
2023/12/31 00:50:57;;;;;;;8.85;3.75;;;;;;;9.06;100.00;100194.66;6085897;19;20041;-75
2023/12/31 00:53:02;;;;;;;6.03;2.97;;;;;;;9.07;100.00;100180.59;6084363;19;20026;-74
2023/12/31 00:55:09;;;;;;;4.63;2.90;;;;;;;9.04;100.00;100172.88;6083438;19;20014;-76
2023/12/31 00:57:21;;;;;;;4.57;2.92;;;;;;;9.04;100.00;100170.25;6080235;19;20030;-75
2023/12/31 00:59:29;;;;;;;5.55;2.80;;;;;;;9.02;100.00;100166.84;6085945;19;20517;-74
2023/12/31 01:01:35;;;;;;;5.13;2.20;;;;;;;9.01;100.00;100160.78;6083957;19;20048;-75
2023/12/31 01:03:39;;;;;;;8.00;2.78;;;;;;;9.02;100.00;100164.25;6083757;19;20027;-74
2023/12/31 01:05:47;;;;;;;5.60;2.67;;;;;;;8.99;100.00;100157.34;6082424;19;20006;-74
2023/12/31 01:07:53;;;;;;;3.95;2.25;;;;;;;8.97;100.00;100158.34;6084616;19;20101;-74
2023/12/31 01:09:58;;;;;;;2.80;2.30;;;;;;;8.99;100.00;100149.50;6084843;19;20006;-73
2023/12/31 01:12:04;;;;;;;3.50;2.00;;;;;;;8.99;100.00;100146.88;6084464;19;20023;-75
2023/12/31 01:14:14;;;;;;;7.85;2.30;;;;;;;9.02;100.00;100143.28;6083030;19;20011;-75
2023/12/31 01:16:20;;;;;;;2.10;1.88;;;;;;;8.99;100.00;100138.16;6085610;19;20451;-75
2023/12/31 01:18:27;;;;;;;7.28;2.33;;;;;;;8.96;100.00;100136.53;6085605;19;20014;-76
2023/12/31 01:20:32;;;;;;;6.63;2.22;;;;;;;9.02;100.00;100127.53;6083876;19;20010;-75
2023/12/31 01:22:38;;;;;;;3.92;2.10;;;;;;;9.04;100.00;100128.34;6083282;19;20015;-74
2023/12/31 01:24:47;;;;;;;2.33;1.77;;;;;;;9.05;100.00;100124.78;6083698;19;20019;-74
2023/12/31 01:26:53;;;;;;;4.38;2.20;;;;;;;9.01;100.00;100125.84;6085214;19;20599;-74
2023/12/31 01:28:58;;;;;;;3.40;1.80;;;;;;;9.02;100.00;100119.69;6082955;19;20014;-75
2023/12/31 01:31:03;;;;;;;5.57;2.10;;;;;;;9.00;100.00;100108.41;6083586;19;20577;-75
2023/12/31 01:33:12;;;;;;;4.72;1.75;;;;;;;9.02;100.00;100119.69;6084313;19;20006;-75
2023/12/31 01:35:22;;;;;;;2.70;1.88;;;;;;;9.01;100.00;100112.75;6084192;19;20040;-75
2023/12/31 01:37:27;;;;;;;4.03;2.05;;;;;;;9.04;100.00;100096.88;6084005;19;20014;-74
2023/12/31 01:39:34;;;;;;;2.75;1.83;;;;;;;9.03;100.00;100092.56;6084423;19;20002;-75
2023/12/31 01:41:42;;;;;;;5.00;3.03;;;;;;;9.00;100.00;100080.47;6084563;19;20019;-75
2023/12/31 01:43:50;;;;;;;3.45;1.90;;;;;;;9.02;100.00;100083.00;6084500;19;20015;-76
2023/12/31 01:45:55;;;;;;;4.95;1.80;;;;;;;9.01;100.00;100081.31;6082032;19;20026;-76
2023/12/31 01:48:03;;;;;;;4.32;2.00;;;;;;;9.02;100.00;100078.59;6082062;19;20082;-75
2023/12/31 01:50:16;;;;;;;4.85;1.95;;;;;;;8.97;100.00;100070.09;6085064;19;20010;-74
2023/12/31 01:52:22;;;;;;;3.28;1.80;;;;;;;8.97;100.00;100075.34;6080262;19;20003;-74
2023/12/31 01:54:27;;;;;;;6.05;2.25;;;;;;;9.00;100.00;100069.09;6082790;19;20015;-75
2023/12/31 01:56:37;;;;;;;4.03;2.25;;;;;;;8.99;100.00;100067.41;6081570;19;20014;-74
2023/12/31 01:58:43;;;;;;;2.40;1.50;;;;;;;8.99;100.00;100062.19;6082644;19;20011;-75
2023/12/31 02:00:51;;;;;;;4.25;1.70;;;;;;;8.98;100.00;100050.00;6079254;19;20655;-75
2023/12/31 02:03:01;;;;;;;2.40;1.45;;;;;;;8.98;100.00;100055.25;6081310;19;20002;-75
2023/12/31 02:05:11;;;;;;;2.03;1.60;;;;;;;8.97;100.00;100056.16;6081942;19;20031;-75
2023/12/31 02:07:17;;;;;;;2.78;2.17;;;;;;;8.98;100.00;100050.00;6084208;19;20011;-75
2023/12/31 02:09:26;;;;;;;3.50;1.95;;;;;;;8.97;100.00;100043.88;6084322;19;20034;-76
2023/12/31 02:11:31;;;;;;;3.00;1.80;;;;;;;8.94;100.00;100032.72;6077560;19;20007;-76
2023/12/31 02:13:36;;;;;;;5.75;2.03;;;;;;;9.00;100.00;100022.81;6080397;19;20499;-75
2023/12/31 02:15:42;;;;;;;3.58;1.75;;;;;;;8.98;100.00;100029.03;6082042;19;20002;-75
2023/12/31 02:17:49;;;;;;;2.60;1.67;;;;;;;8.95;100.00;100022.19;6083640;19;20014;-76
2023/12/31 02:19:55;;;;;;;6.18;1.85;;;;;;;8.98;100.00;100008.09;6084093;19;20391;-75
2023/12/31 02:22:05;;;;;;;3.60;1.98;;;;;;;8.93;100.00;100010.06;6080025;19;20023;-76
2023/12/31 02:24:15;;;;;;;1.95;1.55;;;;;;;8.89;100.00;99998.00;6076529;19;20014;-75
2023/12/31 02:26:23;;;;;;;4.18;1.95;;;;;;;8.88;100.00;100009.44;6076186;19;20495;-75
2023/12/31 02:28:30;;;;;;;1.73;1.40;;;;;;;8.85;100.00;100005.19;6077920;19;20417;-74
2023/12/31 02:30:37;;;;;;;3.58;2.20;;;;;;;8.84;100.00;99985.13;6074138;19;20011;-73
2023/12/31 02:32:42;;;;;;;5.00;2.13;;;;;;;8.85;100.00;99978.13;6074800;19;20085;-75
2023/12/31 02:34:47;;;;;;;3.90;2.00;;;;;;;8.86;100.00;99966.72;6076147;19;20006;-75
2023/12/31 02:36:52;;;;;;;3.10;1.88;;;;;;;8.84;100.00;99958.09;6083679;19;20587;-75
2023/12/31 02:38:59;;;;;;;5.47;2.22;;;;;;;8.81;100.00;99951.22;6084381;19;20017;-75
2023/12/31 02:41:04;;;;;;;6.47;1.98;;;;;;;8.80;100.00;99965.25;6083526;19;20002;-74
2023/12/31 02:43:12;;;;;;;5.45;2.10;;;;;;;8.79;100.00;99955.66;6081107;19;20006;-75
2023/12/31 02:45:18;;;;;;;2.58;1.90;;;;;;;8.81;100.00;99943.34;6082437;19;20287;-75
2023/12/31 02:47:24;;;;;;;2.80;1.67;;;;;;;8.73;100.00;99938.47;6081490;19;20007;-75
2023/12/31 02:49:30;;;;;;;4.40;2.17;;;;;;;8.74;100.00;99939.31;6080565;19;20020;-74
2023/12/31 02:51:37;;;;;;;3.13;1.77;;;;;;;8.74;100.00;99952.41;6081889;19;20010;-75
2023/12/31 02:53:47;;;;;;;3.22;1.65;;;;;;;8.71;100.00;99936.84;6077537;19;20011;-76
2023/12/31 02:55:54;;;;;;;3.65;1.90;;;;;;;8.72;100.00;99926.31;6076130;19;20009;-76
2023/12/31 02:58:01;;;;;;;4.13;1.90;;;;;;;8.72;100.00;99921.09;6079834;19;20763;-76
2023/12/31 03:00:15;;;;;;;3.95;1.88;;;;;;;8.64;100.00;99917.97;6077169;19;20018;-75
2023/12/31 03:02:20;;;;;;;2.78;1.88;;;;;;;8.54;100.00;99908.84;6079038;19;20009;-74
2023/12/31 03:04:26;;;;;;;3.22;2.05;;;;;;;8.60;100.00;99905.09;6078237;19;20018;-77
2023/12/31 03:06:33;;;;;;;5.45;1.90;;;;;;;8.55;100.00;99897.44;6080812;19;20010;-74
2023/12/31 03:08:35;;;;;;;2.33;1.75;;;;;;;8.61;100.00;99884.09;6082059;19;20830;-75
2023/12/31 03:10:41;;;;;;;3.28;2.08;;;;;;;8.48;100.00;99885.59;6077941;19;20015;-77
2023/12/31 03:12:51;;;;;;;4.65;2.50;;;;;;;8.47;100.00;99891.72;6077967;19;20017;-75
2023/12/31 03:14:54;;;;;;;2.60;2.00;;;;;;;8.55;100.00;99879.13;6075263;19;20019;-74
2023/12/31 03:17:03;;;;;;;4.25;1.83;;;;;;;8.52;100.00;99863.56;6073932;19;20344;-74
2023/12/31 03:19:08;;;;;;;3.35;1.95;;;;;;;8.47;100.00;99873.41;6073173;19;20074;-77
2023/12/31 03:21:17;;;;;;;3.53;1.45;;;;;;;8.41;100.00;99855.38;6073700;19;20938;-76
2023/12/31 03:23:24;;;;;;;3.28;2.22;;;;;;;8.47;100.00;99860.31;6074025;19;20027;-78
2023/12/31 03:25:34;;;;;;;2.20;1.92;;;;;;;8.64;100.00;99842.03;6079183;19;20042;-77
2023/12/31 03:27:37;;;;;;;4.00;2.17;;;;;;;8.60;100.00;99842.25;6087244;19;20046;-74
2023/12/31 03:29:49;;;;;;;6.45;2.22;;;;;;;8.68;100.00;99832.25;6087202;19;20559;-74
2023/12/31 03:31:54;;;;;;;1.83;1.60;;;;;;;8.72;100.00;99816.31;6086716;19;20024;-75
2023/12/31 03:34:01;;;;;;;4.32;2.20;;;;;;;8.71;100.00;99811.13;6082953;19;20006;-75
2023/12/31 03:36:05;;;;;;;3.42;2.20;;;;;;;8.76;100.00;99814.38;6087216;19;20918;-76
2023/12/31 03:38:12;;;;;;;2.25;2.00;;;;;;;8.68;100.00;99817.38;6084132;19;20016;-75
2023/12/31 03:40:16;;;;;;;4.30;2.20;;;;;;;8.74;100.00;99805.75;6082501;19;20010;-78
2023/12/31 03:42:25;;;;;;;4.72;2.30;;;;;;;8.82;100.00;99802.75;6083972;19;20011;-76
2023/12/31 03:44:35;;;;;;;3.58;2.33;;;;;;;8.63;100.00;99795.78;6084866;19;20070;-73
2023/12/31 03:46:39;;;;;;;2.78;2.05;;;;;;;8.64;100.00;99792.28;6083847;19;20029;-76
2023/12/31 03:48:45;;;;;;;3.80;2.22;;;;;;;8.74;100.00;99788.28;6083842;19;19999;-74
2023/12/31 03:50:57;;;;;;;4.55;2.30;;;;;;;8.68;100.00;99775.47;6085911;19;20074;-74
2023/12/31 03:53:02;;;;;;;4.10;1.90;;;;;;;8.68;100.00;99774.63;6082013;19;20027;-74
2023/12/31 03:55:08;;;;;;;5.50;2.15;;;;;;;8.75;100.00;99760.31;6085671;19;20014;-72
2023/12/31 03:57:15;;;;;;;3.05;2.25;;;;;;;8.70;100.00;99763.16;6088310;19;20014;-76
2023/12/31 03:59:28;;;;;;;4.70;2.10;;;;;;;8.98;100.00;99767.00;6084010;19;20041;-75
2023/12/31 04:01:32;;;;;;;2.95;1.80;;;;;;;8.72;100.00;99757.84;6085468;19;20024;-75
2023/12/31 04:03:41;;;;;;;2.63;1.55;;;;;;;8.65;100.00;99741.56;6086679;19;20007;-76
2023/12/31 04:05:44;;;;;;;3.78;2.05;;;;;;;8.81;100.00;99741.66;6086755;19;20006;-75
2023/12/31 04:07:51;;;;;;;3.13;2.10;;;;;;;8.68;100.00;99736.19;6086860;19;20007;-75
2023/12/31 04:10:06;;;;;;;2.95;2.20;;;;;;;8.64;100.00;99705.00;6087977;19;20020;-75
2023/12/31 04:12:14;;;;;;;4.85;2.17;;;;;;;8.57;100.00;99700.06;5983128;19;2004876;-75
2023/12/31 04:14:17;;;;;;;4.10;2.50;;;;;;;8.74;100.00;99700.97;6084663;19;20021;-76
2023/12/31 04:16:22;;;;;;;2.60;1.98;;;;;;;8.72;100.00;99679.28;6090055;19;20011;-75
2023/12/31 04:18:27;;;;;;;2.42;1.77;;;;;;;8.71;100.00;99688.88;6088020;19;20031;-76
2023/12/31 04:20:35;;;;;;;3.47;2.33;;;;;;;8.74;100.00;99695.72;6087997;19;20006;-75
2023/12/31 04:22:37;;;;;;;4.25;2.00;;;;;;;8.77;100.00;99701.69;6085553;19;20003;-74
2023/12/31 04:24:45;;;;;;;3.45;1.95;;;;;;;8.57;100.00;99683.50;6085089;19;20003;-74
2023/12/31 04:26:51;;;;;;;3.63;1.90;;;;;;;8.55;100.00;99683.56;6083913;19;20010;-74
2023/12/31 04:28:58;;;;;;;3.42;1.98;;;;;;;8.66;100.00;99680.44;6089382;19;20006;-76
2023/12/31 04:31:08;;;;;;;2.40;1.95;;;;;;;8.64;100.00;99661.31;6086693;19;20017;-74
2023/12/31 04:33:19;;;;;;;5.53;1.88;;;;;;;8.59;100.00;99670.34;6087635;19;20247;-76
2023/12/31 04:35:26;;;;;;;3.72;1.75;;;;;;;8.63;100.00;99646.53;6085979;19;20010;-76
2023/12/31 04:37:33;;;;;;;3.22;2.00;;;;;;;8.65;100.00;99639.44;6086861;19;20022;-75
2023/12/31 04:39:43;;;;;;;4.75;2.08;;;;;;;8.79;100.00;99651.81;6085303;19;20022;-74
2023/12/31 04:41:54;;;;;;;1.98;1.45;;;;;;;8.71;100.00;99664.47;6084402;19;20014;-75
2023/12/31 04:43:59;;;;;;;1.95;1.83;;;;;;;8.70;100.00;99647.06;6083041;19;20014;-74
2023/12/31 04:46:07;;;;;;;3.10;1.70;;;;;;;8.50;100.00;99634.97;6084787;19;20436;-75
2023/12/31 04:48:18;;;;;;;2.28;1.90;;;;;;;8.48;100.00;99637.69;6085135;19;20014;-75
2023/12/31 04:50:26;;;;;;;3.58;1.92;;;;;;;8.53;100.00;99627.84;6082760;19;20483;-74
2023/12/31 04:52:38;;;;;;;2.55;1.92;;;;;;;8.56;100.00;99618.97;6081247;19;20620;-74
2023/12/31 04:54:41;;;;;;;3.35;1.75;;;;;;;8.56;100.00;99622.44;6085004;19;20089;-75
2023/12/31 04:56:46;;;;;;;4.55;2.05;;;;;;;8.57;100.00;99616.28;6082328;19;20356;-77
2023/12/31 04:58:56;;;;;;;4.75;2.22;;;;;;;8.45;100.00;99618.66;6084072;19;20094;-77
2023/12/31 05:01:01;;;;;;;4.13;2.13;;;;;;;8.47;100.00;99614.19;6084460;19;20011;-77
2023/12/31 05:03:09;;;;;;;4.50;1.77;;;;;;;8.55;100.00;99599.78;6086086;19;20003;-75
2023/12/31 05:05:16;;;;;;;3.63;2.10;;;;;;;8.57;100.00;99597.09;6083962;19;20018;-75
2023/12/31 05:07:19;;;;;;;4.90;2.45;;;;;;;8.44;100.00;99594.25;6081840;19;20014;-74
2023/12/31 05:09:25;;;;;;;3.42;2.20;;;;;;;8.49;100.00;99581.78;6083681;19;20010;-76
2023/12/31 05:11:33;;;;;;;3.38;1.92;;;;;;;8.59;100.00;99587.41;6081162;19;20447;-75
2023/12/31 05:13:38;;;;;;;3.92;2.00;;;;;;;8.58;100.00;99575.22;6082610;19;20010;-77
2023/12/31 05:15:46;;;;;;;3.03;2.40;;;;;;;8.59;100.00;99566.44;6083449;19;20433;-75
2023/12/31 05:17:52;;;;;;;6.60;2.30;;;;;;;8.63;100.00;99561.88;6084509;19;20017;-75
2023/12/31 05:19:58;;;;;;;5.10;2.38;;;;;;;8.68;100.00;99560.72;6081942;19;20376;-74
2023/12/31 05:22:03;;;;;;;2.80;2.10;;;;;;;8.71;100.00;99560.53;6082848;19;20051;-76
2023/12/31 05:24:09;;;;;;;6.45;2.85;;;;;;;8.45;100.00;99556.72;6085078;19;20010;-75
2023/12/31 05:26:17;;;;;;;2.53;1.85;;;;;;;8.47;100.00;99556.59;6084309;19;20029;-76
2023/12/31 05:28:19;;;;;;;3.20;2.08;;;;;;;8.45;100.00;99543.63;6083401;19;20030;-76
2023/12/31 05:30:30;;;;;;;2.35;1.85;;;;;;;8.56;100.00;99545.66;6086225;19;20046;-76
2023/12/31 05:32:42;;;;;;;4.72;2.40;;;;;;;8.86;100.00;99524.00;6085107;19;20003;-75
2023/12/31 05:34:47;;;;;;;5.35;2.35;;;;;;;8.83;100.00;99532.03;5998750;19;2004471;-76
2023/12/31 05:36:52;;;;;;;3.65;2.10;;;;;;;8.44;100.00;99531.44;6083920;19;20006;-74
2023/12/31 05:38:57;;;;;;;3.10;2.17;;;;;;;8.44;100.00;99528.81;6086241;19;20077;-73
2023/12/31 05:41:02;;;;;;;3.80;2.28;;;;;;;8.51;100.00;99517.09;6082658;19;20006;-74
2023/12/31 05:43:07;;;;;;;2.05;1.80;;;;;;;8.54;100.00;99511.69;6081366;19;20006;-74
2023/12/31 05:45:14;;;;;;;4.30;2.40;;;;;;;8.48;100.00;99517.28;6083681;19;20101;-74
2023/12/31 05:47:19;;;;;;;4.68;2.33;;;;;;;8.51;100.00;99508.41;6083225;19;20014;-76
2023/12/31 05:49:51;;;;;;;4.18;2.00;;;;;;;8.57;100.00;99505.44;6083928;19;20047;-74
2023/12/31 05:51:58;;;;;;;4.55;2.55;;;;;;;8.55;100.00;99502.06;6082271;19;20017;-75
2023/12/31 05:54:04;;;;;;;3.38;2.13;;;;;;;8.57;100.00;99501.06;6078410;19;20111;-74
2023/12/31 05:56:07;;;;;;;5.32;2.78;;;;;;;8.59;100.00;99494.91;6081645;19;20462;-74
2023/12/31 05:58:12;;;;;;;3.95;2.30;;;;;;;8.63;100.00;99497.25;6081159;19;20011;-73
2023/12/31 06:00:17;;;;;;;5.43;2.45;;;;;;;8.67;100.00;99490.94;6083686;19;20016;-74
2023/12/31 06:02:24;;;;;;;8.50;2.58;;;;;;;8.72;100.00;99491.53;6082337;19;20007;-74
2023/12/31 06:04:31;;;;;;;4.18;2.42;;;;;;;8.69;100.00;99481.22;6079546;19;20003;-74
2023/12/31 06:06:39;;;;;;;3.63;1.92;;;;;;;8.71;100.00;99487.22;6081635;19;20023;-78
2023/12/31 06:08:44;;;;;;;6.32;2.58;;;;;;;8.73;100.00;99480.13;6080446;19;20324;-74
2023/12/31 06:10:50;;;;;;;6.00;2.72;;;;;;;8.72;100.00;99478.44;6082633;19;20094;-74
2023/12/31 06:12:55;;;;;;;4.18;2.15;;;;;;;8.73;100.00;99485.34;6082636;19;20014;-74
2023/12/31 06:15:00;;;;;;;3.55;2.35;;;;;;;8.76;100.00;99471.25;6080528;19;20003;-75
2023/12/31 06:17:05;;;;;;;3.10;2.42;;;;;;;8.73;100.00;99463.56;6083758;19;20018;-75
2023/12/31 06:19:11;;;;;;;4.70;2.88;;;;;;;8.75;100.00;99454.69;6082924;19;20030;-75
2023/12/31 06:21:17;;;;;;;5.47;2.60;;;;;;;8.72;100.00;99454.03;6082159;19;20051;-76
2023/12/31 06:23:29;;;;;;;3.42;2.10;;;;;;;8.74;100.00;99450.41;6079694;19;20026;-76
2023/12/31 06:25:35;;;;;;;3.97;2.27;;;;;;;8.68;100.00;99450.72;6080995;19;20515;-75
2023/12/31 06:27:41;;;;;;;4.45;2.45;;;;;;;8.73;100.00;99440.84;6077615;19;20258;-75
2023/12/31 06:29:46;;;;;;;5.35;2.63;;;;;;;8.79;100.00;99437.91;6082450;19;20439;-76
2023/12/31 06:31:56;;;;;;;5.15;2.58;;;;;;;8.73;100.00;99427.75;6081856;19;20014;-76
2023/12/31 06:33:58;;;;;;;4.63;2.42;;;;;;;8.74;100.00;99424.22;6084046;19;20010;-76
2023/12/31 06:36:05;;;;;;;4.63;2.33;;;;;;;8.81;100.00;99442.19;6081898;19;20121;-75
2023/12/31 06:38:13;;;;;;;4.75;2.55;;;;;;;8.79;100.00;99439.66;6082293;19;20012;-76
2023/12/31 06:40:21;;;;;;;3.45;2.50;;;;;;;8.71;100.00;99429.59;6081130;19;20353;-75
2023/12/31 06:42:24;;;;;;;6.70;2.20;;;;;;;8.78;100.00;99411.78;6078596;19;20499;-75
2023/12/31 06:44:32;;;;;;;5.40;2.50;;;;;;;8.81;100.00;99416.84;6081400;19;20013;-77
2023/12/31 06:46:39;;;;;;;5.32;2.58;;;;;;;8.79;100.00;99405.59;6079603;19;20013;-76
2023/12/31 06:48:45;;;;;;;4.18;2.33;;;;;;;8.81;100.00;99408.13;6081312;19;20010;-76
2023/12/31 06:50:54;;;;;;;6.32;2.80;;;;;;;8.88;100.00;99404.25;6079544;19;20017;-75
2023/12/31 06:53:00;;;;;;;7.25;2.67;;;;;;;8.83;100.00;99401.88;6076983;19;20374;-74
2023/12/31 06:55:13;;;;;;;5.28;2.65;;;;;;;8.85;100.00;99402.66;6083891;19;20033;-75
2023/12/31 06:57:24;;;;;;;6.30;2.95;;;;;;;8.85;100.00;99404.44;6074363;19;20424;-75
2023/12/31 06:59:29;;;;;;;5.07;3.25;;;;;;;8.81;100.00;99395.88;6077777;19;20006;-76
2023/12/31 07:01:34;;;;;;;3.70;2.20;;;;;;;8.79;100.00;99387.25;6079750;19;20090;-76
2023/12/31 07:03:40;;;;;;;5.93;2.90;;;;;;;8.81;100.00;99389.81;6080100;19;20004;-76
2023/12/31 07:05:47;;;;;;;5.88;2.67;;;;;;;8.67;100.00;99388.81;6078400;19;20098;-76
2023/12/31 07:07:57;;;;;;;4.45;2.45;;;;;;;8.69;100.00;99384.34;6080600;19;20011;-75
2023/12/31 07:10:05;;;;;;;3.03;2.25;;;;;;;8.71;100.00;99387.69;6078991;19;20017;-76
2023/12/31 07:12:10;;;;;;;4.30;2.40;;;;;;;8.59;100.00;99375.31;6081615;19;20010;-75
2023/12/31 07:14:23;;;;;;;4.97;2.63;;;;;;;8.64;100.00;99373.28;6080620;19;20813;-75
2023/12/31 07:16:28;;;;;;;5.50;2.70;;;;;;;8.59;100.00;99372.69;6079673;19;20383;-76
2023/12/31 07:18:35;;;;;;;3.10;2.05;;;;;;;8.63;100.00;99376.81;6077853;19;20007;-77
2023/12/31 07:20:41;;;;;;;6.57;2.83;;;;;;;8.57;100.00;99369.28;6083652;19;20023;-75
2023/12/31 07:22:46;;;;;;;5.53;2.58;;;;;;;8.54;100.00;99364.25;6080596;19;20574;-74
2023/12/31 07:24:51;;;;;;;4.05;2.50;;;;;;;8.51;100.00;99374.88;6080130;19;20010;-76
2023/12/31 07:26:56;;;;;;;5.90;3.28;;;;;;;8.49;100.00;99368.88;6076880;19;20028;-77
2023/12/31 07:29:01;;;;;;;5.40;2.60;;;;;;;8.49;100.00;99363.66;6077223;19;20007;-75
2023/12/31 07:31:17;;;;;;;3.63;2.28;;;;;;;8.45;100.00;99370.84;6078592;19;20518;-75
2023/12/31 07:33:22;;;;;;;7.07;3.80;;;;;;;8.54;100.00;99357.22;6075284;19;20506;-73
2023/12/31 07:35:27;;;;;;;6.03;2.35;;;;;;;8.47;100.00;99365.50;6078259;19;20028;-75
2023/12/31 07:37:30;;;;;;;5.57;2.80;;;;;;;8.40;100.00;99359.78;6079530;19;20011;-73
2023/12/31 07:39:34;;;;;;;4.47;2.55;;;;;;;8.37;100.00;99352.03;6078812;19;20021;-73
2023/12/31 07:41:39;;;;;;;4.10;2.47;;;;;;;8.37;100.00;99352.03;6080547;19;20014;-75
2023/12/31 07:43:45;;;;;;;5.47;2.85;;;;;;;8.31;100.00;99357.63;6079342;19;20057;-75
2023/12/31 07:45:51;;;;;;;4.43;2.42;;;;;;;8.32;100.00;99352.31;6080017;19;20011;-75
2023/12/31 07:47:58;;;;;;;4.13;2.30;;;;;;;8.28;100.00;99353.41;6080337;19;20456;-76
2023/12/31 07:50:03;;;;;;;4.63;2.75;;;;;;;8.22;100.00;99348.50;6078813;19;20718;-76
2023/12/31 07:52:08;;;;;;;4.13;2.70;;;;;;;8.22;100.00;99348.50;6077194;19;20015;-75
2023/12/31 07:54:13;;;;;;;5.43;2.58;;;;;;;8.24;100.00;99349.28;6075689;19;20046;-75
2023/12/31 07:56:21;;;;;;;6.60;3.20;;;;;;;8.17;100.00;99353.16;6079879;19;20414;-76
2023/12/31 07:58:27;;;;;;;6.30;3.15;;;;;;;8.14;100.00;99358.56;6078287;19;20070;-74
2023/12/31 08:00:32;;;;;;;7.32;2.83;;;;;;;8.12;100.00;99349.94;6077503;19;20018;-71
2023/12/31 08:02:37;;;;;;;6.55;3.10;;;;;;;8.11;100.00;99361.34;6073116;19;20019;-72
2023/12/31 08:04:45;;;;;;;6.05;3.08;;;;;;;8.02;100.00;99377.50;6076564;19;20625;-72
2023/12/31 08:06:51;;;;;;;10.88;3.22;;;;;;;8.00;100.00;99374.97;6076204;19;20008;-72
2023/12/31 08:08:53;;;;;;;5.38;3.03;;;;;;;7.99;100.00;99377.69;6075559;19;20014;-71
2023/12/31 08:10:59;;;;;;;8.77;3.50;;;;;;;7.97;100.00;99374.28;6083911;19;20509;-72
2023/12/31 08:13:07;;;;;;;6.25;2.60;;;;;;;7.98;100.00;99375.97;6086121;19;20630;-75
2023/12/31 08:15:13;;;;;;;3.85;2.20;;;;;;;8.00;100.00;99405.50;6085811;19;20454;-75
2023/12/31 08:17:18;;;;;;;4.05;2.33;;;;;;;7.94;100.00;99366.63;6081993;19;20015;-72
2023/12/31 08:19:23;;;;;;;1.85;1.38;;;;;;;7.81;100.00;99376.88;6086274;19;20006;-73
2023/12/31 08:21:30;;;;;;;2.40;1.27;;;;;;;7.75;100.00;99364.97;6087861;19;20073;-75
2023/12/31 08:23:35;;;;;;;1.45;1.35;;;;;;;7.75;100.00;99358.91;6085022;19;20504;-75
2023/12/31 08:25:41;;;;;;;6.85;1.75;;;;;;;7.70;100.00;99364.38;6083348;19;20023;-73
2023/12/31 08:27:46;;;;;;;1.48;1.38;;;;;;;7.70;100.00;99372.22;6085093;19;19999;-73
2023/12/31 08:29:51;;;;;;;1.50;1.35;;;;;;;7.67;100.00;99373.22;6086042;19;20010;-74
2023/12/31 08:31:57;;;;;;;8.98;1.40;;;;;;;7.70;100.00;99380.91;6084112;19;20425;-74
2023/12/31 08:34:02;;;;;;;1.85;1.52;;;;;;;7.73;100.00;99382.50;6085740;19;20020;-74
2023/12/31 08:36:08;;;;;;;6.25;2.38;;;;;;;7.82;100.00;99374.19;6081763;19;20006;-71
2023/12/31 08:38:16;;;;;;;2.13;1.70;;;;;;;7.84;100.00;99374.94;6085075;19;20090;-73
2023/12/31 08:40:21;;;;;;;4.57;1.80;;;;;;;7.76;100.00;99363.19;6083573;19;20003;-74
2023/12/31 08:42:26;;;;;;;5.57;2.35;;;;;;;7.75;100.00;99364.13;6084874;19;20014;-73
2023/12/31 08:44:31;;;;;;;1.95;1.50;;;;;;;7.77;100.00;99368.34;6083658;19;20014;-73
2023/12/31 08:46:36;;;;;;;2.25;1.13;;;;;;;7.73;100.00;99361.59;6083464;19;20038;-72
2023/12/31 08:48:41;;;;;;;3.83;1.20;;;;;;;7.73;100.00;99374.66;6083872;19;20010;-73
2023/12/31 08:50:46;;;;;;;3.35;1.70;;;;;;;7.74;100.00;99372.88;6082448;19;20503;-73
2023/12/31 08:52:51;;;;;;;1.38;1.20;;;;;;;7.72;100.00;99374.75;6081190;19;20096;-72
2023/12/31 08:54:56;;;;;;;3.72;1.65;;;;;;;7.71;100.00;99389.56;6080331;19;20014;-70
2023/12/31 08:57:01;;;;;;;3.10;1.75;;;;;;;7.73;100.00;99389.50;6085143;19;20014;-71
2023/12/31 08:59:06;;;;;;;6.28;1.65;;;;;;;7.76;100.00;99389.34;6082386;19;20046;-72
2023/12/31 09:01:12;;;;;;;3.13;1.67;;;;;;;7.77;100.00;99391.91;6081796;19;20013;-73
2023/12/31 09:03:17;;;;;;;3.45;1.40;;;;;;;7.74;100.00;99394.69;6083192;19;20122;-75
2023/12/31 09:05:22;;;;;;;1.73;1.45;;;;;;;7.75;100.00;99393.75;6082952;19;20038;-75
2023/12/31 09:07:27;;;;;;;2.22;1.40;;;;;;;7.67;100.00;99388.06;6077310;19;20014;-75
2023/12/31 09:09:32;;;;;;;2.15;1.23;;;;;;;7.71;100.00;99392.19;6080907;19;20367;-74
2023/12/31 09:11:40;;;;;;;1.65;1.20;;;;;;;7.76;100.00;99378.88;6078634;19;20013;-71
2023/12/31 09:13:45;;;;;;;4.35;1.52;;;;;;;7.76;100.00;99368.44;6080352;19;20013;-73
2023/12/31 09:15:55;;;;;;;1.33;1.10;;;;;;;7.76;100.00;99371.03;6083352;19;20367;-74
2023/12/31 09:18:00;;;;;;;1.90;1.20;;;;;;;7.83;100.00;99365.41;6080151;19;20034;-73
2023/12/31 09:20:05;;;;;;;2.35;1.23;;;;;;;7.88;100.00;99366.00;6080897;19;19999;-73
2023/12/31 09:22:13;;;;;;;0.93;0.90;;;;;;;7.90;100.00;99372.00;6081456;19;20014;-70
2023/12/31 09:24:18;;;;;;;1.48;1.40;;;;;;;7.98;100.00;99379.47;6081362;19;20485;-70
2023/12/31 09:26:24;;;;;;;1.33;1.23;;;;;;;7.93;100.00;99376.25;6083854;19;20086;-69
2023/12/31 09:28:31;;;;;;;3.28;1.83;;;;;;;7.97;100.00;99374.28;6084665;19;20017;-73
2023/12/31 09:30:36;;;;;;;2.08;1.35;;;;;;;7.97;100.00;99376.91;6081254;19;20558;-74
2023/12/31 09:32:41;;;;;;;1.10;1.10;;;;;;;7.98;100.00;99371.63;6081983;19;20010;-69
2023/12/31 09:34:46;;;;;;;1.60;1.38;;;;;;;8.05;100.00;99379.97;6081180;19;20036;-69
2023/12/31 09:36:51;;;;;;;1.42;1.25;;;;;;;8.07;100.00;99380.72;6081260;19;20106;-69
2023/12/31 09:38:56;;;;;;;4.30;1.63;;;;;;;8.15;100.00;99373.31;6082180;19;20003;-69
2023/12/31 09:41:02;;;;;;;6.15;1.35;;;;;;;8.18;100.00;99375.75;6081345;19;20006;-74
2023/12/31 09:43:09;;;;;;;2.47;1.52;;;;;;;8.16;100.00;99388.06;6080516;19;20823;-74
2023/12/31 09:45:21;;;;;;;3.50;1.20;;;;;;;8.17;100.00;99376.69;6082243;19;20480;-74
2023/12/31 09:47:28;;;;;;;1.27;1.17;;;;;;;8.25;100.00;99369.28;6083043;19;20170;-70
2023/12/31 09:49:31;;;;;;;1.45;1.02;;;;;;;8.30;100.00;99377.72;6077285;19;20079;-69
2023/12/31 09:51:37;;;;;;;1.27;0.88;;;;;;;8.30;100.00;99380.34;6078556;19;20010;-74
2023/12/31 09:53:45;;;;;;;1.88;1.42;;;;;;;8.35;100.00;99367.00;6079638;19;20006;-70